sensor_id;sensor_type;location;lat;lon;timestamp;temperature;humidity
17333;DHT22;8784;50.94667800;7.08448400;2023-03-14T00:00:11;12.70;99.90
17333;DHT22;8784;50.94667800;7.08448400;2023-03-14T00:02:39;12.70;99.90
17333;DHT22;8784;50.94667800;7.08448400;2023-03-14T00:05:07;12.70;99.90
17333;DHT22;8784;50.94667800;7.08448400;2023-03-14T00:07:36;12.70;99.90
17333;DHT22;8784;50.94667800;7.08448400;2023-03-14T00:10:04;12.60;99.90
17333;DHT22;8784;50.94667800;7.08448400;2023-03-14T00:12:33;12.60;99.90
17333;DHT22;8784;50.94667800;7.08448400;2023-03-14T00:15:01;12.70;99.90
17333;DHT22;8784;50.94667800;7.08448400;2023-03-14T00:17:29;12.70;99.90
17333;DHT22;8784;50.94667800;7.08448400;2023-03-14T00:19:56;12.70;99.90
17333;DHT22;8784;50.94667800;7.08448400;2023-03-14T00:22:29;12.70;99.90
17333;DHT22;8784;50.94667800;7.08448400;2023-03-14T00:24:56;12.70;99.90
17333;DHT22;8784;50.94667800;7.08448400;2023-03-14T00:27:23;12.60;99.90
17333;DHT22;8784;50.94667800;7.08448400;2023-03-14T00:29:51;12.70;99.90
17333;DHT22;8784;50.94667800;7.08448400;2023-03-14T00:32:18;12.70;99.90
17333;DHT22;8784;50.94667800;7.08448400;2023-03-14T00:34:45;12.80;99.90
17333;DHT22;8784;50.94667800;7.08448400;2023-03-14T00:37:12;12.80;99.90
17333;DHT22;8784;50.94667800;7.08448400;2023-03-14T00:39:39;12.80;99.90
17333;DHT22;8784;50.94667800;7.08448400;2023-03-14T00:42:05;12.80;99.90
17333;DHT22;8784;50.94667800;7.08448400;2023-03-14T00:44:32;12.80;99.90
17333;DHT22;8784;50.94667800;7.08448400;2023-03-14T00:47:01;12.80;99.90
17333;DHT22;8784;50.94667800;7.08448400;2023-03-14T00:49:27;12.80;99.90
17333;DHT22;8784;50.94667800;7.08448400;2023-03-14T00:51:54;12.80;99.90
17333;DHT22;8784;50.94667800;7.08448400;2023-03-14T00:54:21;12.80;99.90
17333;DHT22;8784;50.94667800;7.08448400;2023-03-14T00:56:48;12.80;99.90
17333;DHT22;8784;50.94667800;7.08448400;2023-03-14T00:59:16;12.80;99.90
17333;DHT22;8784;50.94667800;7.08448400;2023-03-14T01:01:42;12.90;99.90
17333;DHT22;8784;50.94667800;7.08448400;2023-03-14T01:04:11;12.90;99.90
17333;DHT22;8784;50.94667800;7.08448400;2023-03-14T01:06:39;12.90;99.90
17333;DHT22;8784;50.94667800;7.08448400;2023-03-14T01:09:06;12.90;99.90
17333;DHT22;8784;50.94667800;7.08448400;2023-03-14T01:11:34;12.90;99.90
17333;DHT22;8784;50.94667800;7.08448400;2023-03-14T01:14:02;12.90;99.90
17333;DHT22;8784;50.94667800;7.08448400;2023-03-14T01:16:31;12.90;99.90
17333;DHT22;8784;50.94667800;7.08448400;2023-03-14T01:18:58;12.90;99.90
17333;DHT22;8784;50.94667800;7.08448400;2023-03-14T01:21:28;12.90;99.90
17333;DHT22;8784;50.94667800;7.08448400;2023-03-14T01:23:56;12.90;99.90
17333;DHT22;8784;50.94667800;7.08448400;2023-03-14T01:26:24;12.90;99.90
17333;DHT22;8784;50.94667800;7.08448400;2023-03-14T01:28:53;12.90;99.90
17333;DHT22;8784;50.94667800;7.08448400;2023-03-14T01:31:20;12.70;99.90
17333;DHT22;8784;50.94667800;7.08448400;2023-03-14T01:33:47;12.40;99.90
17333;DHT22;8784;50.94667800;7.08448400;2023-03-14T01:36:14;12.20;99.90
17333;DHT22;8784;50.94667800;7.08448400;2023-03-14T01:38:42;12.00;99.90
17333;DHT22;8784;50.94667800;7.08448400;2023-03-14T01:41:13;11.80;99.90
17333;DHT22;8784;50.94667800;7.08448400;2023-03-14T01:43:40;11.70;99.90
17333;DHT22;8784;50.94667800;7.08448400;2023-03-14T01:46:18;11.70;99.90
17333;DHT22;8784;50.94667800;7.08448400;2023-03-14T01:48:50;11.60;99.90
17333;DHT22;8784;50.94667800;7.08448400;2023-03-14T01:51:21;11.60;99.90
17333;DHT22;8784;50.94667800;7.08448400;2023-03-14T01:53:50;11.50;99.90
17333;DHT22;8784;50.94667800;7.08448400;2023-03-14T01:56:19;11.40;99.90
17333;DHT22;8784;50.94667800;7.08448400;2023-03-14T01:58:48;11.30;99.90
17333;DHT22;8784;50.94667800;7.08448400;2023-03-14T02:01:19;11.30;99.90
17333;DHT22;8784;50.94667800;7.08448400;2023-03-14T02:03:50;11.20;99.90
17333;DHT22;8784;50.94667800;7.08448400;2023-03-14T02:06:21;11.20;99.90
17333;DHT22;8784;50.94667800;7.08448400;2023-03-14T02:08:49;11.10;99.90
17333;DHT22;8784;50.94667800;7.08448400;2023-03-14T02:11:17;11.10;99.90
17333;DHT22;8784;50.94667800;7.08448400;2023-03-14T02:13:45;11.00;99.90
17333;DHT22;8784;50.94667800;7.08448400;2023-03-14T02:16:12;10.90;99.90
17333;DHT22;8784;50.94667800;7.08448400;2023-03-14T02:18:39;10.80;99.90
17333;DHT22;8784;50.94667800;7.08448400;2023-03-14T02:21:12;10.80;99.90
17333;DHT22;8784;50.94667800;7.08448400;2023-03-14T02:23:51;10.80;99.90
17333;DHT22;8784;50.94667800;7.08448400;2023-03-14T02:26:22;10.80;99.90
17333;DHT22;8784;50.94667800;7.08448400;2023-03-14T02:28:53;10.90;99.90
17333;DHT22;8784;50.94667800;7.08448400;2023-03-14T02:31:21;10.80;99.90
17333;DHT22;8784;50.94667800;7.08448400;2023-03-14T02:33:49;10.80;99.90
17333;DHT22;8784;50.94667800;7.08448400;2023-03-14T02:36:18;10.80;99.90
17333;DHT22;8784;50.94667800;7.08448400;2023-03-14T02:38:49;10.80;99.90
17333;DHT22;8784;50.94667800;7.08448400;2023-03-14T02:41:18;10.70;99.90
17333;DHT22;8784;50.94667800;7.08448400;2023-03-14T02:43:45;10.70;99.90
17333;DHT22;8784;50.94667800;7.08448400;2023-03-14T02:46:14;10.70;99.90
17333;DHT22;8784;50.94667800;7.08448400;2023-03-14T02:48:46;10.70;99.90
17333;DHT22;8784;50.94667800;7.08448400;2023-03-14T02:51:13;10.60;99.90
17333;DHT22;8784;50.94667800;7.08448400;2023-03-14T02:53:41;10.60;99.90
17333;DHT22;8784;50.94667800;7.08448400;2023-03-14T02:56:09;10.60;99.90
17333;DHT22;8784;50.94667800;7.08448400;2023-03-14T02:58:37;10.60;99.90
17333;DHT22;8784;50.94667800;7.08448400;2023-03-14T03:01:05;10.60;99.90
17333;DHT22;8784;50.94667800;7.08448400;2023-03-14T03:03:33;10.60;99.90
17333;DHT22;8784;50.94667800;7.08448400;2023-03-14T03:06:00;10.70;99.90
17333;DHT22;8784;50.94667800;7.08448400;2023-03-14T03:08:28;10.80;99.90
17333;DHT22;8784;50.94667800;7.08448400;2023-03-14T03:10:57;10.80;99.90
17333;DHT22;8784;50.94667800;7.08448400;2023-03-14T03:13:24;10.80;99.90
17333;DHT22;8784;50.94667800;7.08448400;2023-03-14T03:15:52;10.80;99.90
17333;DHT22;8784;50.94667800;7.08448400;2023-03-14T03:18:19;10.80;99.90
17333;DHT22;8784;50.94667800;7.08448400;2023-03-14T03:20:48;10.80;99.90
17333;DHT22;8784;50.94667800;7.08448400;2023-03-14T03:23:14;10.90;99.90
17333;DHT22;8784;50.94667800;7.08448400;2023-03-14T03:25:41;10.90;99.90
17333;DHT22;8784;50.94667800;7.08448400;2023-03-14T03:28:08;10.90;99.90
17333;DHT22;8784;50.94667800;7.08448400;2023-03-14T03:30:37;11.00;99.90
17333;DHT22;8784;50.94667800;7.08448400;2023-03-14T03:33:04;11.00;99.90
17333;DHT22;8784;50.94667800;7.08448400;2023-03-14T03:35:31;11.00;99.90
17333;DHT22;8784;50.94667800;7.08448400;2023-03-14T03:37:59;11.00;99.90
17333;DHT22;8784;50.94667800;7.08448400;2023-03-14T03:40:26;11.00;99.90
17333;DHT22;8784;50.94667800;7.08448400;2023-03-14T03:42:53;11.10;99.90
17333;DHT22;8784;50.94667800;7.08448400;2023-03-14T03:45:20;11.00;99.90
17333;DHT22;8784;50.94667800;7.08448400;2023-03-14T03:47:47;11.00;99.90
17333;DHT22;8784;50.94667800;7.08448400;2023-03-14T03:50:14;11.00;99.90
17333;DHT22;8784;50.94667800;7.08448400;2023-03-14T03:52:41;11.00;99.90
17333;DHT22;8784;50.94667800;7.08448400;2023-03-14T03:55:09;11.00;99.90
17333;DHT22;8784;50.94667800;7.08448400;2023-03-14T03:57:36;11.00;99.90
17333;DHT22;8784;50.94667800;7.08448400;2023-03-14T04:00:04;11.00;99.90
17333;DHT22;8784;50.94667800;7.08448400;2023-03-14T04:02:31;11.00;99.90
17333;DHT22;8784;50.94667800;7.08448400;2023-03-14T04:04:58;11.00;99.90
17333;DHT22;8784;50.94667800;7.08448400;2023-03-14T04:07:25;11.00;99.90
17333;DHT22;8784;50.94667800;7.08448400;2023-03-14T04:09:52;11.00;99.90
17333;DHT22;8784;50.94667800;7.08448400;2023-03-14T04:12:20;10.90;99.90
17333;DHT22;8784;50.94667800;7.08448400;2023-03-14T04:14:46;10.90;99.90
17333;DHT22;8784;50.94667800;7.08448400;2023-03-14T04:17:13;10.80;99.90
17333;DHT22;8784;50.94667800;7.08448400;2023-03-14T04:19:40;10.90;99.90
17333;DHT22;8784;50.94667800;7.08448400;2023-03-14T04:22:07;10.80;99.90
17333;DHT22;8784;50.94667800;7.08448400;2023-03-14T04:24:35;10.90;99.90
17333;DHT22;8784;50.94667800;7.08448400;2023-03-14T04:27:02;10.90;99.90
17333;DHT22;8784;50.94667800;7.08448400;2023-03-14T04:29:30;11.00;99.90
17333;DHT22;8784;50.94667800;7.08448400;2023-03-14T04:31:57;11.00;99.90
17333;DHT22;8784;50.94667800;7.08448400;2023-03-14T04:34:24;11.00;99.90
17333;DHT22;8784;50.94667800;7.08448400;2023-03-14T04:36:51;11.00;99.90
17333;DHT22;8784;50.94667800;7.08448400;2023-03-14T04:39:18;11.10;99.90
17333;DHT22;8784;50.94667800;7.08448400;2023-03-14T04:41:45;11.00;99.90
17333;DHT22;8784;50.94667800;7.08448400;2023-03-14T04:44:12;11.00;99.90
17333;DHT22;8784;50.94667800;7.08448400;2023-03-14T04:46:40;11.00;99.90
17333;DHT22;8784;50.94667800;7.08448400;2023-03-14T04:49:07;10.90;99.90
17333;DHT22;8784;50.94667800;7.08448400;2023-03-14T04:51:34;10.90;99.90
17333;DHT22;8784;50.94667800;7.08448400;2023-03-14T04:54:00;10.90;99.90
17333;DHT22;8784;50.94667800;7.08448400;2023-03-14T04:56:27;10.80;99.90
17333;DHT22;8784;50.94667800;7.08448400;2023-03-14T04:58:54;10.80;99.90
17333;DHT22;8784;50.94667800;7.08448400;2023-03-14T05:01:21;10.80;99.90
17333;DHT22;8784;50.94667800;7.08448400;2023-03-14T05:03:50;10.80;99.90
17333;DHT22;8784;50.94667800;7.08448400;2023-03-14T05:06:17;10.80;99.90
17333;DHT22;8784;50.94667800;7.08448400;2023-03-14T05:08:43;10.80;99.90
17333;DHT22;8784;50.94667800;7.08448400;2023-03-14T05:11:10;10.80;99.90
17333;DHT22;8784;50.94667800;7.08448400;2023-03-14T05:13:38;10.70;99.90
17333;DHT22;8784;50.94667800;7.08448400;2023-03-14T05:16:06;10.70;99.90
17333;DHT22;8784;50.94667800;7.08448400;2023-03-14T05:18:33;10.70;99.90
17333;DHT22;8784;50.94667800;7.08448400;2023-03-14T05:21:01;10.70;99.90
17333;DHT22;8784;50.94667800;7.08448400;2023-03-14T05:23:28;10.70;99.90
17333;DHT22;8784;50.94667800;7.08448400;2023-03-14T05:25:55;10.80;99.90
17333;DHT22;8784;50.94667800;7.08448400;2023-03-14T05:28:22;10.80;99.90
17333;DHT22;8784;50.94667800;7.08448400;2023-03-14T05:30:49;10.80;99.90
17333;DHT22;8784;50.94667800;7.08448400;2023-03-14T05:33:16;10.90;99.90
17333;DHT22;8784;50.94667800;7.08448400;2023-03-14T05:35:43;11.00;99.90
17333;DHT22;8784;50.94667800;7.08448400;2023-03-14T05:38:13;11.00;99.90
17333;DHT22;8784;50.94667800;7.08448400;2023-03-14T05:40:40;11.10;99.90
17333;DHT22;8784;50.94667800;7.08448400;2023-03-14T05:43:06;11.10;99.90
17333;DHT22;8784;50.94667800;7.08448400;2023-03-14T05:45:34;11.10;99.90
17333;DHT22;8784;50.94667800;7.08448400;2023-03-14T05:48:01;11.10;99.90
17333;DHT22;8784;50.94667800;7.08448400;2023-03-14T05:50:31;11.20;99.90
17333;DHT22;8784;50.94667800;7.08448400;2023-03-14T05:52:57;11.20;99.90
17333;DHT22;8784;50.94667800;7.08448400;2023-03-14T05:55:26;11.10;99.90
17333;DHT22;8784;50.94667800;7.08448400;2023-03-14T05:57:53;11.20;99.90
17333;DHT22;8784;50.94667800;7.08448400;2023-03-14T06:00:20;11.20;99.90
17333;DHT22;8784;50.94667800;7.08448400;2023-03-14T06:02:47;11.20;99.90
17333;DHT22;8784;50.94667800;7.08448400;2023-03-14T06:05:14;11.20;99.90
17333;DHT22;8784;50.94667800;7.08448400;2023-03-14T06:07:41;11.20;99.90
17333;DHT22;8784;50.94667800;7.08448400;2023-03-14T06:10:09;11.20;99.90
17333;DHT22;8784;50.94667800;7.08448400;2023-03-14T06:12:37;11.20;99.90
17333;DHT22;8784;50.94667800;7.08448400;2023-03-14T06:15:05;11.20;99.90
17333;DHT22;8784;50.94667800;7.08448400;2023-03-14T06:17:32;11.10;99.90
17333;DHT22;8784;50.94667800;7.08448400;2023-03-14T06:19:59;11.10;99.90
17333;DHT22;8784;50.94667800;7.08448400;2023-03-14T06:22:26;11.00;99.90
17333;DHT22;8784;50.94667800;7.08448400;2023-03-14T06:24:53;10.90;99.90
17333;DHT22;8784;50.94667800;7.08448400;2023-03-14T06:27:20;10.90;99.90
17333;DHT22;8784;50.94667800;7.08448400;2023-03-14T06:29:48;10.80;99.90
17333;DHT22;8784;50.94667800;7.08448400;2023-03-14T06:32:15;10.90;99.90
17333;DHT22;8784;50.94667800;7.08448400;2023-03-14T06:34:44;10.90;99.90
17333;DHT22;8784;50.94667800;7.08448400;2023-03-14T06:37:11;11.00;99.90
17333;DHT22;8784;50.94667800;7.08448400;2023-03-14T06:39:38;11.10;99.90
17333;DHT22;8784;50.94667800;7.08448400;2023-03-14T06:42:05;11.20;99.90
17333;DHT22;8784;50.94667800;7.08448400;2023-03-14T06:44:32;11.20;99.90
17333;DHT22;8784;50.94667800;7.08448400;2023-03-14T06:47:01;11.40;99.90
17333;DHT22;8784;50.94667800;7.08448400;2023-03-14T06:49:27;11.40;99.90
17333;DHT22;8784;50.94667800;7.08448400;2023-03-14T06:51:54;11.50;99.90
17333;DHT22;8784;50.94667800;7.08448400;2023-03-14T06:54:22;11.50;99.90
17333;DHT22;8784;50.94667800;7.08448400;2023-03-14T06:56:48;11.50;99.90
17333;DHT22;8784;50.94667800;7.08448400;2023-03-14T06:59:15;11.60;99.90
17333;DHT22;8784;50.94667800;7.08448400;2023-03-14T07:01:42;11.70;99.90
17333;DHT22;8784;50.94667800;7.08448400;2023-03-14T07:04:10;11.90;99.90
17333;DHT22;8784;50.94667800;7.08448400;2023-03-14T07:06:37;12.00;99.90
17333;DHT22;8784;50.94667800;7.08448400;2023-03-14T07:09:05;12.10;99.90
17333;DHT22;8784;50.94667800;7.08448400;2023-03-14T07:11:32;12.10;99.90
17333;DHT22;8784;50.94667800;7.08448400;2023-03-14T07:13:58;12.00;99.90
17333;DHT22;8784;50.94667800;7.08448400;2023-03-14T07:16:25;12.00;99.90
17333;DHT22;8784;50.94667800;7.08448400;2023-03-14T07:18:54;12.00;99.90
17333;DHT22;8784;50.94667800;7.08448400;2023-03-14T07:21:23;12.00;99.90
17333;DHT22;8784;50.94667800;7.08448400;2023-03-14T07:23:50;12.30;99.90
17333;DHT22;8784;50.94667800;7.08448400;2023-03-14T07:26:17;12.20;99.90
17333;DHT22;8784;50.94667800;7.08448400;2023-03-14T07:28:44;12.40;99.90
17333;DHT22;8784;50.94667800;7.08448400;2023-03-14T07:31:11;12.40;99.90
17333;DHT22;8784;50.94667800;7.08448400;2023-03-14T07:33:38;12.40;99.90
17333;DHT22;8784;50.94667800;7.08448400;2023-03-14T07:36:05;12.40;99.90
17333;DHT22;8784;50.94667800;7.08448400;2023-03-14T07:38:34;12.40;99.90
17333;DHT22;8784;50.94667800;7.08448400;2023-03-14T07:41:01;12.50;99.90
17333;DHT22;8784;50.94667800;7.08448400;2023-03-14T07:43:29;12.50;99.90
17333;DHT22;8784;50.94667800;7.08448400;2023-03-14T07:45:55;12.50;99.90
17333;DHT22;8784;50.94667800;7.08448400;2023-03-14T07:48:22;12.50;99.90
17333;DHT22;8784;50.94667800;7.08448400;2023-03-14T07:50:51;12.60;99.90
17333;DHT22;8784;50.94667800;7.08448400;2023-03-14T07:53:18;12.70;99.90
17333;DHT22;8784;50.94667800;7.08448400;2023-03-14T07:55:46;12.70;99.90
17333;DHT22;8784;50.94667800;7.08448400;2023-03-14T07:58:14;12.80;99.90
17333;DHT22;8784;50.94667800;7.08448400;2023-03-14T08:00:41;12.70;99.90
17333;DHT22;8784;50.94667800;7.08448400;2023-03-14T08:03:09;12.80;99.90
17333;DHT22;8784;50.94667800;7.08448400;2023-03-14T08:05:37;12.80;99.90
17333;DHT22;8784;50.94667800;7.08448400;2023-03-14T08:08:04;12.80;99.90
17333;DHT22;8784;50.94667800;7.08448400;2023-03-14T08:10:32;12.90;99.90
17333;DHT22;8784;50.94667800;7.08448400;2023-03-14T08:13:00;13.00;99.90
17333;DHT22;8784;50.94667800;7.08448400;2023-03-14T08:15:29;13.10;99.90
17333;DHT22;8784;50.94667800;7.08448400;2023-03-14T08:17:56;13.10;99.90
17333;DHT22;8784;50.94667800;7.08448400;2023-03-14T08:20:25;13.10;99.90
17333;DHT22;8784;50.94667800;7.08448400;2023-03-14T08:22:55;13.20;99.90
17333;DHT22;8784;50.94667800;7.08448400;2023-03-14T08:25:22;13.20;99.90
17333;DHT22;8784;50.94667800;7.08448400;2023-03-14T08:27:49;13.30;99.90
17333;DHT22;8784;50.94667800;7.08448400;2023-03-14T08:30:19;13.40;99.90
17333;DHT22;8784;50.94667800;7.08448400;2023-03-14T08:32:46;13.50;99.90
17333;DHT22;8784;50.94667800;7.08448400;2023-03-14T08:35:13;13.60;99.90
17333;DHT22;8784;50.94667800;7.08448400;2023-03-14T08:37:40;13.50;99.90
17333;DHT22;8784;50.94667800;7.08448400;2023-03-14T08:40:08;13.60;99.90
17333;DHT22;8784;50.94667800;7.08448400;2023-03-14T08:42:35;13.70;99.90
17333;DHT22;8784;50.94667800;7.08448400;2023-03-14T08:45:03;13.70;99.90
17333;DHT22;8784;50.94667800;7.08448400;2023-03-14T08:47:31;13.80;99.90
17333;DHT22;8784;50.94667800;7.08448400;2023-03-14T08:49:58;13.70;99.90
17333;DHT22;8784;50.94667800;7.08448400;2023-03-14T08:52:25;13.60;99.90
17333;DHT22;8784;50.94667800;7.08448400;2023-03-14T08:54:52;13.30;99.90
17333;DHT22;8784;50.94667800;7.08448400;2023-03-14T08:57:19;13.20;99.90
17333;DHT22;8784;50.94667800;7.08448400;2023-03-14T08:59:47;13.20;99.90
17333;DHT22;8784;50.94667800;7.08448400;2023-03-14T09:02:14;13.30;99.90
17333;DHT22;8784;50.94667800;7.08448400;2023-03-14T09:04:42;13.30;99.90
17333;DHT22;8784;50.94667800;7.08448400;2023-03-14T09:07:09;13.30;99.90
17333;DHT22;8784;50.94667800;7.08448400;2023-03-14T09:09:36;13.30;99.90
17333;DHT22;8784;50.94667800;7.08448400;2023-03-14T09:12:03;13.30;99.90
17333;DHT22;8784;50.94667800;7.08448400;2023-03-14T09:14:31;13.10;99.90
17333;DHT22;8784;50.94667800;7.08448400;2023-03-14T09:16:58;12.80;99.90
17333;DHT22;8784;50.94667800;7.08448400;2023-03-14T09:19:25;12.60;99.90
17333;DHT22;8784;50.94667800;7.08448400;2023-03-14T09:21:54;12.50;99.90
17333;DHT22;8784;50.94667800;7.08448400;2023-03-14T09:24:21;12.40;99.90
17333;DHT22;8784;50.94667800;7.08448400;2023-03-14T09:26:48;12.30;99.90
17333;DHT22;8784;50.94667800;7.08448400;2023-03-14T09:29:15;12.20;99.90
17333;DHT22;8784;50.94667800;7.08448400;2023-03-14T09:31:41;12.30;99.90
17333;DHT22;8784;50.94667800;7.08448400;2023-03-14T09:34:08;12.30;99.90
17333;DHT22;8784;50.94667800;7.08448400;2023-03-14T09:36:35;12.40;99.90
17333;DHT22;8784;50.94667800;7.08448400;2023-03-14T09:39:05;12.40;99.90
17333;DHT22;8784;50.94667800;7.08448400;2023-03-14T09:41:35;12.40;99.90
17333;DHT22;8784;50.94667800;7.08448400;2023-03-14T09:44:06;12.40;99.90
17333;DHT22;8784;50.94667800;7.08448400;2023-03-14T09:46:38;12.40;99.90
17333;DHT22;8784;50.94667800;7.08448400;2023-03-14T09:49:11;12.40;99.90
17333;DHT22;8784;50.94667800;7.08448400;2023-03-14T09:51:38;12.30;99.90
17333;DHT22;8784;50.94667800;7.08448400;2023-03-14T09:54:17;12.00;99.90
17333;DHT22;8784;50.94667800;7.08448400;2023-03-14T09:56:47;11.90;99.90
17333;DHT22;8784;50.94667800;7.08448400;2023-03-14T09:59:14;11.40;99.90
17333;DHT22;8784;50.94667800;7.08448400;2023-03-14T10:01:41;11.40;99.90
17333;DHT22;8784;50.94667800;7.08448400;2023-03-14T10:04:12;11.30;99.90
17333;DHT22;8784;50.94667800;7.08448400;2023-03-14T10:06:41;11.20;99.90
17333;DHT22;8784;50.94667800;7.08448400;2023-03-14T10:09:12;11.10;99.90
17333;DHT22;8784;50.94667800;7.08448400;2023-03-14T10:11:43;11.00;99.90
17333;DHT22;8784;50.94667800;7.08448400;2023-03-14T10:14:11;10.90;99.90
17333;DHT22;8784;50.94667800;7.08448400;2023-03-14T10:16:42;10.80;99.90
17333;DHT22;8784;50.94667800;7.08448400;2023-03-14T10:19:11;10.80;99.90
17333;DHT22;8784;50.94667800;7.08448400;2023-03-14T10:21:40;10.70;99.90
17333;DHT22;8784;50.94667800;7.08448400;2023-03-14T10:24:16;10.80;99.90
17333;DHT22;8784;50.94667800;7.08448400;2023-03-14T10:26:43;10.70;99.90
17333;DHT22;8784;50.94667800;7.08448400;2023-03-14T10:29:13;10.80;99.90
17333;DHT22;8784;50.94667800;7.08448400;2023-03-14T10:31:51;10.80;99.90
17333;DHT22;8784;50.94667800;7.08448400;2023-03-14T10:34:22;10.80;99.90
17333;DHT22;8784;50.94667800;7.08448400;2023-03-14T10:36:52;10.70;99.90
17333;DHT22;8784;50.94667800;7.08448400;2023-03-14T10:39:39;10.60;99.90
17333;DHT22;8784;50.94667800;7.08448400;2023-03-14T10:42:15;10.50;99.90
17333;DHT22;8784;50.94667800;7.08448400;2023-03-14T10:44:43;10.30;99.90
17333;DHT22;8784;50.94667800;7.08448400;2023-03-14T10:47:18;10.20;99.90
17333;DHT22;8784;50.94667800;7.08448400;2023-03-14T10:49:46;10.10;99.90
17333;DHT22;8784;50.94667800;7.08448400;2023-03-14T10:52:17;10.00;99.90
17333;DHT22;8784;50.94667800;7.08448400;2023-03-14T10:54:49;10.00;99.90
17333;DHT22;8784;50.94667800;7.08448400;2023-03-14T10:57:20;10.10;99.90
17333;DHT22;8784;50.94667800;7.08448400;2023-03-14T10:59:48;10.00;99.90
17333;DHT22;8784;50.94667800;7.08448400;2023-03-14T11:02:31;10.10;99.90
17333;DHT22;8784;50.94667800;7.08448400;2023-03-14T11:05:08;10.10;99.90
17333;DHT22;8784;50.94667800;7.08448400;2023-03-14T11:07:39;10.20;99.90
17333;DHT22;8784;50.94667800;7.08448400;2023-03-14T11:10:18;10.20;99.90
17333;DHT22;8784;50.94667800;7.08448400;2023-03-14T11:12:53;10.20;99.90
17333;DHT22;8784;50.94667800;7.08448400;2023-03-14T11:15:27;10.30;99.90
17333;DHT22;8784;50.94667800;7.08448400;2023-03-14T11:18:18;10.50;99.90
17333;DHT22;8784;50.94667800;7.08448400;2023-03-14T11:20:52;10.60;99.90
17333;DHT22;8784;50.94667800;7.08448400;2023-03-14T11:23:21;10.90;99.90
17333;DHT22;8784;50.94667800;7.08448400;2023-03-14T11:25:56;11.10;99.90
17333;DHT22;8784;50.94667800;7.08448400;2023-03-14T11:28:29;11.20;99.90
17333;DHT22;8784;50.94667800;7.08448400;2023-03-14T11:31:05;11.40;99.90
17333;DHT22;8784;50.94667800;7.08448400;2023-03-14T11:33:38;11.60;99.90
17333;DHT22;8784;50.94667800;7.08448400;2023-03-14T11:36:07;11.50;99.90
17333;DHT22;8784;50.94667800;7.08448400;2023-03-14T11:38:38;11.60;99.90
17333;DHT22;8784;50.94667800;7.08448400;2023-03-14T11:41:14;11.70;99.90
17333;DHT22;8784;50.94667800;7.08448400;2023-03-14T11:43:41;11.80;99.90
17333;DHT22;8784;50.94667800;7.08448400;2023-03-14T11:46:17;12.10;99.90
17333;DHT22;8784;50.94667800;7.08448400;2023-03-14T11:48:50;11.90;99.90
17333;DHT22;8784;50.94667800;7.08448400;2023-03-14T11:51:24;11.70;99.90
17333;DHT22;8784;50.94667800;7.08448400;2023-03-14T11:53:58;11.20;99.90
17333;DHT22;8784;50.94667800;7.08448400;2023-03-14T11:56:33;10.80;99.90
17333;DHT22;8784;50.94667800;7.08448400;2023-03-14T11:59:04;10.60;99.90
17333;DHT22;8784;50.94667800;7.08448400;2023-03-14T12:01:47;10.50;99.90
17333;DHT22;8784;50.94667800;7.08448400;2023-03-14T12:04:31;10.40;99.90
17333;DHT22;8784;50.94667800;7.08448400;2023-03-14T12:07:03;10.40;99.90
17333;DHT22;8784;50.94667800;7.08448400;2023-03-14T12:09:31;10.30;99.90
17333;DHT22;8784;50.94667800;7.08448400;2023-03-14T12:12:01;10.20;99.90
17333;DHT22;8784;50.94667800;7.08448400;2023-03-14T12:14:31;10.10;99.90
17333;DHT22;8784;50.94667800;7.08448400;2023-03-14T12:17:05;10.20;99.90
17333;DHT22;8784;50.94667800;7.08448400;2023-03-14T12:19:37;10.20;99.90
17333;DHT22;8784;50.94667800;7.08448400;2023-03-14T12:22:23;10.00;99.90
17333;DHT22;8784;50.94667800;7.08448400;2023-03-14T12:24:55;9.90;99.90
17333;DHT22;8784;50.94667800;7.08448400;2023-03-14T12:30:37;9.70;99.90
17333;DHT22;8784;50.94667800;7.08448400;2023-03-14T12:33:31;9.80;99.90
17333;DHT22;8784;50.94667800;7.08448400;2023-03-14T12:36:00;10.00;99.90
17333;DHT22;8784;50.94667800;7.08448400;2023-03-14T12:38:43;10.30;99.90
17333;DHT22;8784;50.94667800;7.08448400;2023-03-14T12:41:15;10.70;99.90
17333;DHT22;8784;50.94667800;7.08448400;2023-03-14T12:43:46;10.90;99.90
17333;DHT22;8784;50.94667800;7.08448400;2023-03-14T12:46:21;11.20;99.90
17333;DHT22;8784;50.94667800;7.08448400;2023-03-14T12:48:50;11.50;99.90
17333;DHT22;8784;50.94667800;7.08448400;2023-03-14T12:51:18;11.50;99.90
17333;DHT22;8784;50.94667800;7.08448400;2023-03-14T12:54:09;11.40;99.90
17333;DHT22;8784;50.94667800;7.08448400;2023-03-14T12:56:59;11.30;99.90
17333;DHT22;8784;50.94667800;7.08448400;2023-03-14T12:59:34;11.10;99.90
17333;DHT22;8784;50.94667800;7.08448400;2023-03-14T13:02:14;11.00;99.90
17333;DHT22;8784;50.94667800;7.08448400;2023-03-14T13:04:47;10.90;99.90
17333;DHT22;8784;50.94667800;7.08448400;2023-03-14T13:07:38;10.60;99.90
17333;DHT22;8784;50.94667800;7.08448400;2023-03-14T13:10:23;10.40;99.90
17333;DHT22;8784;50.94667800;7.08448400;2023-03-14T13:12:55;10.40;99.90
17333;DHT22;8784;50.94667800;7.08448400;2023-03-14T13:15:29;10.60;99.90
17333;DHT22;8784;50.94667800;7.08448400;2023-03-14T13:18:02;10.70;99.90
17333;DHT22;8784;50.94667800;7.08448400;2023-03-14T13:20:32;10.80;99.90
17333;DHT22;8784;50.94667800;7.08448400;2023-03-14T13:23:00;11.00;99.90
17333;DHT22;8784;50.94667800;7.08448400;2023-03-14T13:25:33;11.00;99.90
17333;DHT22;8784;50.94667800;7.08448400;2023-03-14T13:28:01;11.20;99.90
17333;DHT22;8784;50.94667800;7.08448400;2023-03-14T13:30:39;11.10;99.90
17333;DHT22;8784;50.94667800;7.08448400;2023-03-14T13:33:12;11.20;99.90
17333;DHT22;8784;50.94667800;7.08448400;2023-03-14T13:35:42;11.30;99.90
17333;DHT22;8784;50.94667800;7.08448400;2023-03-14T13:38:19;11.20;99.90
17333;DHT22;8784;50.94667800;7.08448400;2023-03-14T13:40:46;11.10;99.90
17333;DHT22;8784;50.94667800;7.08448400;2023-03-14T13:43:16;11.10;99.90
17333;DHT22;8784;50.94667800;7.08448400;2023-03-14T13:45:56;11.00;99.90
17333;DHT22;8784;50.94667800;7.08448400;2023-03-14T13:48:29;10.90;99.90